Station: Redland (Alexandra Hills)  

  Atmospheric Gas Attenuation - ITU Rec 676-11   ----------------- dB/100km -----------------
Date Time Temp RH % AH g/m3 Dew Point Wind Direction Speed kph Gust kph Barometer mB Rainfall Since 9am 24GHz 47GHz 76GHz 122GHz 134GHz 241GHz
08/05 12:30 20.1 25 4.35 -0.5 6 17 1013.1 0 10.4 18.3 22.4 57.9 43.2 145.4
08/05 12:20 19.5 22 3.69 -2.8 2 6 1013.1 0 9.0 17.6 20.5 52.9 36.8 122.7
08/05 12:10 19.4 25 4.17 -1.1 11 15 1013.1 0 10.0 18.2 22.0 56.9 41.7 140.1
08/05 12:00 19.2 27 4.45 -0.2 6 11 1013.1 0 10.6 18.6 22.9 59.4 44.7 150.7
08/05 11:50 19.1 27 4.43 -0.4 6 9 1013.1 0 10.6 18.6 22.9 59.3 44.5 150.1
08/05 11:40 19.7 32 5.43 2.5 9 11 1013.1 0 12.7 19.8 25.9 67.4 54.8 186.3
08/05 11:30 18.5 29 4.59 0.2 7 15 1013.1 0 10.9 18.9 23.6 61.1 46.6 157.1
08/05 11:20 18.6 29 4.62 0.2 7 11 1013.1 0 11.0 18.9 23.6 61.3 46.8 158.1
08/05 11:10 18.2 30 4.66 0.3 4 4 1013.1 0 11.1 19.1 23.9 61.9 47.5 160.3
08/05 11:00 17.7 27 4.07 -1.5 4 9 1013.1 0 9.9 18.4 22.1 57.2 41.5 139.2
08/05 10:50 17.8 27 4.1 -1.5 4 6 1013.1 0 9.9 18.4 22.2 57.4 41.8 140.2
08/05 10:40 17.6 27 4.05 -1.6 4 4 1013.1 0 9.8 18.4 22.1 57.1 41.4 138.7
08/05 10:30 17.5 33 4.92 1 6 11 1013.1 0 11.7 19.5 24.9 64.7 50.7 171.6
08/05 10:20 17.2 30 4.39 -0.5 6 6 1013.1 0 10.6 18.9 23.3 60.3 45.2 152.0
08/05 10:10 16.9 29 4.17 -1.3 6 6 1013.1 0 10.1 18.7 22.7 58.6 43.0 144.3
08/05 10:00 16.5 30 4.21 -1.1 7 13 1013.1 0 10.2 18.8 22.9 59.3 43.6 146.5
08/05 09:50 16.4 31 4.33 -0.8 9 11 1013.1 0 10.5 19.0 23.3 60.4 45.0 151.2
08/05 09:40 16.1 33 4.52 -0.2 9 11 1013.1 0 10.9 19.3 24.0 62.3 47.2 159.0
08/05 09:30 16.3 34 4.72 0.4 13 20 1013.1 0 11.3 19.5 24.6 63.9 49.3 166.3
08/05 09:20 15.7 33 4.42 -0.5 13 15 1013.1 0 10.7 19.2 23.8 61.7 46.3 156.0
08/05 09:10 15.6 37 4.92 0.9 11 15 1013.1 0 11.7 19.9 25.5 66.2 51.9 175.6
08/05 09:00 15.4 40 5.26 1.9 13 19 1013.1 0 12.4 20.5 26.7 69.5 55.9 189.5
08/05 08:50 14.9 38 4.84 0.7 11 13 1013.1 0 11.6 20.0 25.4 66.1 51.5 173.9
08/05 08:40 14.5 39 4.85 0.7 11 15 1013.1 0 11.6 20.1 25.6 66.5 51.8 175.2
08/05 08:30 14.3 40 4.91 0.9 11 17 1013.1 0 11.7 20.2 25.9 67.2 52.6 178.0
08/05 08:20 13.8 46 5.48 2.4 11 15 1013.1 0 13.0 21.1 28.0 73.0 59.5 202.2
08/05 08:10 13.4 48 5.58 2.6 9 13 1013.1 0 13.2 21.4 28.5 74.3 61.0 207.4
08/05 08:00 13 50 5.67 2.8 13 19 1013.1 0 13.4 21.6 29.0 75.5 62.4 212.2
08/05 07:50 12.6 51 5.64 2.7 11 15 1013.1 0 13.3 21.6 29.0 75.6 62.3 211.9
08/05 07:40 12.4 54 5.9 3.3 9 13 1013.1 0 13.9 22.1 30.0 78.3 65.6 223.5
08/05 07:30 12.1 54 5.79 3.1 11 17 1013.1 0 13.7 22.0 29.7 77.5 64.6 219.6
08/05 07:20 11.7 55 5.75 2.9 9 15 1013.1 0 13.6 22.0 29.7 77.5 64.4 219.0
08/05 07:10 11.4 57 5.85 3.2 9 11 1013.1 0 13.8 22.2 30.2 78.8 65.9 224.1
08/05 07:00 11.2 57 5.78 3 9 15 1013.1 0 13.7 22.2 30.0 78.3 65.2 221.7
08/05 06:50 11.1 58 5.84 3.1 9 11 1013.1 0 13.8 22.3 30.3 79.0 66.0 224.5
08/05 06:40 10.9 59 5.87 3.2 13 15 1013.1 0 13.9 22.4 30.5 79.5 66.5 226.4
08/05 06:30 10.9 59 5.87 3.2 13 19 1013.1 0 13.9 22.4 30.5 79.5 66.5 226.4
08/05 06:20 10.9 60 5.97 3.4 11 13 1013.1 0 14.1 22.5 30.8 80.5 67.8 230.7
08/05 06:10 10.7 62 6.09 3.7 11 13 1013.1 0 14.4 22.8 31.4 81.9 69.4 236.6
08/05 06:00 10.8 62 6.13 3.8 11 17 1013.1 0 14.4 22.8 31.5 82.2 69.8 238.0
08/05 05:50 10.8 63 6.23 4 13 15 1013.1 0 14.7 23.0 31.9 83.2 71.1 242.4
08/05 05:40 10.9 64 6.37 4.3 11 15 1013.1 0 15.0 23.2 32.4 84.5 72.8 248.3
08/05 05:30 11.1 64 6.45 4.6 9 15 1013.1 0 15.1 23.2 32.6 85.2 73.6 251.2
08/05 05:20 11.3 63 6.43 4.5 11 11 1013.1 0 15.1 23.1 32.4 84.7 73.1 249.7
08/05 05:10 11.4 63 6.47 4.6 11 13 1013.1 0 15.1 23.2 32.5 85.0 73.6 251.1
08/05 05:00 11.5 63 6.51 4.7 11 15 1013.1 0 15.2 23.2 32.6 85.3 74.0 252.6
08/05 04:50 11.5 63 6.51 4.7 9 11 1013.1 0 15.2 23.2 32.6 85.3 74.0 252.6
08/05 04:40 11.8 62 6.53 4.7 11 13 1013.1 0 15.3 23.2 32.6 85.2 73.9 252.5
08/05 04:30 11.9 62 6.57 4.9 9 17 1013.1 0 15.3 23.2 32.7 85.5 74.3 254.0
08/05 04:20 12.1 61 6.54 4.8 9 11 1013.1 0 15.3 23.1 32.5 85.0 73.8 252.0
08/05 04:10 12.4 60 6.56 4.8 9 15 1013.1 0 15.3 23.1 32.5 84.9 73.7 251.9
08/05 04:00 12.4 61 6.67 5.1 11 15 1013.1 0 15.5 23.2 32.9 86.0 75.1 256.7
08/05 03:50 12.6 60 6.64 5 9 11 1013.1 0 15.5 23.1 32.7 85.5 74.6 254.8
08/05 03:40 12.6 60 6.64 5.2 11 13 1013.1 0 15.5 23.1 32.7 85.5 74.6 254.8
08/05 03:30 12.8 60 6.72 5.2 11 17 1013.1 0 15.6 23.2 32.9 86.1 75.4 257.6
08/05 03:20 12.8 60 6.72 5.4 13 15 1013.1 0 15.6 23.2 32.9 86.1 75.4 257.6
08/05 03:10 13.1 58 6.62 5.2 11 15 1013.1 0 15.4 23.0 32.4 84.7 73.8 252.3
08/05 03:00 13.4 58 6.74 5.3 9 17 1013.1 0 15.6 23.1 32.7 85.6 75.0 256.6
08/05 02:50 13.3 59 6.82 5.4 15 19 1013.1 0 15.8 23.2 33.1 86.5 76.1 260.4
08/05 02:40 13.2 58 6.66 5.3 9 11 1013.1 0 15.5 23.0 32.5 85.0 74.2 253.8
08/05 02:30 13.4 58 6.74 5.3 7 11 1013.1 0 15.6 23.1 32.7 85.6 75.0 256.6
08/05 02:20 13.9 55 6.59 5.2 7 9 1013.1 0 15.3 22.7 32.0 83.6 72.7 248.5
08/05 02:10 13.4 58 6.74 5.3 9 13 1013.1 0 15.6 23.1 32.7 85.6 75.0 256.6
08/05 02:00 13.8 56 6.67 5.2 6 11 1013.1 0 15.5 22.9 32.3 84.5 73.8 252.3
08/05 01:50 14.3 54 6.63 5.1 6 7 1013.1 0 15.4 22.7 32.0 83.6 72.8 249.0
08/05 01:40 14.7 52 6.55 4.9 7 7 1013.1 0 15.2 22.5 31.5 82.4 71.5 244.4
08/05 01:30 14.8 51 6.46 4.8 6 9 1013.1 0 15.0 22.3 31.2 81.4 70.3 240.3
08/05 01:20 15.1 50 6.45 4.7 6 7 1013.1 0 15.0 22.2 31.0 81.0 70.0 239.0
08/05 01:10 15.3 49 6.4 4.6 7 9 1013.1 0 14.8 22.1 30.8 80.3 69.2 236.3
08/05 01:00 15.6 49 6.52 4.9 13 17 1013.1 0 15.1 22.2 31.1 81.2 70.4 240.4
08/05 00:50 15.9 48 6.5 4.9 15 19 1013.1 0 15.0 22.1 30.9 80.7 69.9 238.7
08/05 00:40 15.8 47 6.33 4.5 13 17 1013.1 0 14.7 21.9 30.3 79.2 67.9 231.9
08/05 00:30 16.3 46 6.38 4.7 15 26 1013.1 0 14.8 21.8 30.3 79.1 68.1 232.6
08/05 00:20 16.5 45 6.32 4.5 19 22 1013.1 0 14.6 21.7 30.0 78.4 67.2 229.5
08/05 00:10 16.5 45 6.32 4.5 17 22 1013.1 0 14.6 21.7 30.0 78.4 67.2 229.5
08/05 00:00 16.5 45 6.32 4.5 13 19 1013.1 0 14.6 21.7 30.0 78.4 67.2 229.5
07/05 23:50 16.4 46 6.42 4.7 13 15 1013.1 0 14.8 21.9 30.4 79.4 68.5 233.9
07/05 23:40 16.3 46 6.38 4.6 9 9 1013.1 0 14.8 21.8 30.3 79.1 68.1 232.6
07/05 23:30 16.4 45 6.28 4.4 6 11 1013.1 0 14.6 21.7 29.9 78.1 66.8 228.2
07/05 23:20 16.7 44 6.25 4.4 4 6 1013.1 0 14.5 21.6 29.7 77.5 66.2 226.1
07/05 23:10 17.1 43 6.26 4.4 11 13 1013.1 0 14.5 21.5 29.6 77.2 66.0 225.4
07/05 23:00 17.6 42 6.3 4.6 9 15 1013.1 0 14.6 21.4 29.6 77.1 66.1 225.6
07/05 22:50 17.5 43 6.41 4.8 13 17 1013.1 0 14.8 21.6 30.0 78.3 67.4 230.4
07/05 22:40 17.5 43 6.41 4.8 19 24 1013.1 0 14.8 21.6 30.0 78.3 67.4 230.4
07/05 22:30 17.7 42 6.34 4.6 17 28 1013.1 0 14.6 21.5 29.7 77.4 66.5 227.0
07/05 22:20 18 42 6.45 4.9 19 20 1013.1 0 14.9 21.5 29.9 78.2 67.5 230.6
07/05 22:10 18.2 41 6.37 4.7 15 19 1013.1 0 14.7 21.4 29.6 77.2 66.4 226.8
07/05 22:00 18.6 40 6.37 4.8 15 22 1013.1 0 14.7 21.3 29.4 76.8 66.1 225.7
07/05 21:50 18.5 40 6.33 4.6 11 17 1013.1 0 14.6 21.3 29.3 76.6 65.7 224.4
07/05 21:40 18.7 40 6.4 4.8 11 15 1013.1 0 14.7 21.3 29.5 77.0 66.3 226.6
07/05 21:30 18.9 39 6.32 4.7 13 20 1013.1 0 14.5 21.2 29.2 76.1 65.2 222.9
07/05 21:20 18.8 40 6.44 5.2 9 17 1013.1 0 14.8 21.3 29.6 77.3 66.7 227.9
07/05 21:10 18.8 40 6.44 5.2 7 9 1013.1 0 14.8 21.3 29.6 77.3 66.7 227.9
07/05 21:00 18.9 41 6.64 5.4 6 9 1013.1 0 15.2 21.6 30.3 79.1 68.9 235.7
07/05 20:50 19.2 39 6.43 5.2 7 9 1013.1 0 14.8 21.2 29.4 76.8 66.2 226.4
07/05 20:40 18.8 42 6.76 5.6 9 13 1013.1 0 15.5 21.8 30.7 80.3 70.4 240.8
07/05 20:30 19 41 6.68 5.5 4 9 1013.1 0 15.3 21.6 30.4 79.3 69.3 237.0
07/05 20:20 19.3 39 6.47 5.3 6 11 1013.1 0 14.8 21.3 29.5 77.1 66.6 227.7
07/05 20:10 19.2 41 6.76 5.6 11 17 1013.1 0 15.5 21.7 30.6 79.9 70.0 239.6
07/05 20:00 19.6 39 6.58 5.3 2 6 1013.1 0 15.1 21.4 29.8 77.8 67.6 231.3

Last Refresh: 08-May-2026 12:07:37

Bureau of Meteorology